Time;durP1;ratioP1;P1;durP2;ratioP2;P2;SDS_P1;SDS_P2;PMS_P1;PMS_P2;Temp;Humidity;BMP_temperature;BMP_pressure;BME280_temperature;BME280_humidity;BME280_pressure;Samples;Min_cycle;Max_cycle;Signal;HPM_P1;HPM_P2
2024/03/31 00:01:05;;;;;;;19.27;6.87;;;13.00;99.90;;;;;;5013645;28;20184;-67
2024/03/31 00:03:31;;;;;;;27.27;8.70;;;12.90;99.90;;;;;;5011883;28;20209;-69
2024/03/31 00:05:57;;;;;;;22.37;7.30;;;12.70;99.90;;;;;;5014500;28;20463;-67
2024/03/31 00:08:22;;;;;;;21.83;7.07;;;12.80;99.90;;;;;;5012559;28;20761;-68
2024/03/31 00:10:48;;;;;;;24.77;7.50;;;12.80;99.90;;;;;;5018526;28;20179;-68
2024/03/31 00:13:14;;;;;;;18.50;7.53;;;12.70;99.90;;;;;;5017333;28;20267;-68
2024/03/31 00:15:39;;;;;;;24.30;6.80;;;12.70;99.90;;;;;;5017627;28;20674;-68
2024/03/31 00:18:05;;;;;;;15.70;6.83;;;12.70;99.90;;;;;;5019211;28;20200;-69
2024/03/31 00:20:31;;;;;;;19.33;7.20;;;12.70;99.90;;;;;;5016441;28;20184;-68
2024/03/31 00:22:56;;;;;;;21.60;6.70;;;12.70;99.90;;;;;;5014900;28;20803;-68
2024/03/31 00:25:22;;;;;;;28.40;7.17;;;12.60;99.90;;;;;;5020553;28;20196;-70
2024/03/31 00:27:47;;;;;;;19.77;6.53;;;12.60;99.90;;;;;;5020727;28;20207;-69
2024/03/31 00:30:13;;;;;;;17.60;6.33;;;12.60;99.90;;;;;;5011623;28;20268;-69
2024/03/31 00:32:39;;;;;;;14.37;6.23;;;12.50;99.90;;;;;;5021080;28;20185;-69
2024/03/31 00:35:05;;;;;;;15.43;6.83;;;12.50;99.90;;;;;;5016822;28;20447;-69
2024/03/31 00:37:30;;;;;;;19.93;6.83;;;12.60;99.90;;;;;;5017981;28;20195;-69
2024/03/31 00:39:56;;;;;;;17.53;7.73;;;12.60;99.90;;;;;;5015439;28;20181;-69
2024/03/31 00:42:21;;;;;;;20.37;7.33;;;12.50;99.90;;;;;;5022468;28;20180;-69
2024/03/31 00:44:47;;;;;;;15.90;6.50;;;12.50;99.90;;;;;;5016387;28;20580;-69
2024/03/31 00:47:13;;;;;;;21.17;7.60;;;12.40;99.90;;;;;;5022908;28;20176;-69
2024/03/31 00:49:38;;;;;;;13.93;7.03;;;12.30;99.90;;;;;;5025291;28;20184;-69
2024/03/31 00:52:04;;;;;;;19.50;7.87;;;12.30;99.90;;;;;;5019069;28;20421;-69
2024/03/31 00:54:37;;;;;;;19.10;7.57;;;12.20;99.90;;;;;;5021193;28;20226;-69
2024/03/31 00:57:02;;;;;;;20.27;8.30;;;12.20;99.90;;;;;;5021763;28;20436;-69
2024/03/31 00:59:28;;;;;;;18.80;7.70;;;12.30;99.90;;;;;;5027683;28;20433;-69
2024/03/31 01:01:53;;;;;;;18.23;8.00;;;12.30;99.90;;;;;;5021820;28;20196;-69
2024/03/31 01:04:19;;;;;;;22.93;7.53;;;12.30;99.90;;;;;;5022507;28;20216;-69
2024/03/31 01:06:45;;;;;;;14.23;7.53;;;12.20;99.90;;;;;;5024429;28;20295;-69
2024/03/31 01:09:10;;;;;;;18.77;7.63;;;12.20;99.90;;;;;;5021069;28;20651;-69
2024/03/31 01:11:36;;;;;;;22.40;7.23;;;12.20;99.90;;;;;;5024952;28;20243;-69
2024/03/31 01:14:03;;;;;;;18.23;6.83;;;12.20;99.90;;;;;;5022540;28;20780;-68
2024/03/31 01:16:29;;;;;;;21.27;8.23;;;12.20;99.90;;;;;;5027416;28;20207;-69
2024/03/31 01:18:54;;;;;;;17.67;7.87;;;12.20;99.90;;;;;;5028053;28;20660;-68
2024/03/31 01:21:22;;;;;;;27.33;9.00;;;12.10;99.90;;;;;;5022749;28;21377;-69
2024/03/31 01:23:59;;;;;;;22.00;7.30;;;12.10;99.90;;;;;;5020333;28;20205;-68
2024/03/31 01:26:25;;;;;;;16.00;7.20;;;12.10;99.90;;;;;;5022177;28;20959;-68
2024/03/31 01:28:51;;;;;;;20.23;8.40;;;12.20;99.90;;;;;;5024441;28;20419;-68
2024/03/31 01:31:16;;;;;;;15.20;6.50;;;12.20;99.90;;;;;;5021714;28;20177;-69
2024/03/31 01:33:43;;;;;;;24.10;7.80;;;12.20;99.90;;;;;;5021304;28;20711;-68
2024/03/31 01:36:09;;;;;;;15.90;6.83;;;12.30;99.90;;;;;;5022614;28;20212;-69
2024/03/31 01:38:34;;;;;;;22.17;7.67;;;12.30;99.90;;;;;;5021262;28;20786;-69
2024/03/31 01:41:00;;;;;;;15.40;6.47;;;12.30;99.90;;;;;;5023717;28;20177;-69
2024/03/31 01:43:26;;;;;;;23.67;7.20;;;12.30;99.90;;;;;;5020630;28;20200;-69
2024/03/31 01:45:51;;;;;;;20.10;7.00;;;12.30;99.90;;;;;;5022129;28;20196;-69
2024/03/31 01:48:17;;;;;;;17.17;7.10;;;12.30;99.90;;;;;;5021914;28;20399;-69
2024/03/31 01:50:43;;;;;;;17.40;6.93;;;12.30;99.90;;;;;;5025795;28;20188;-69
2024/03/31 01:53:09;;;;;;;13.70;6.33;;;12.30;99.90;;;;;;5028134;28;20188;-68
2024/03/31 01:55:34;;;;;;;19.03;6.20;;;12.30;99.90;;;;;;5027547;28;20538;-68
2024/03/31 01:58:00;;;;;;;19.70;6.60;;;12.30;99.90;;;;;;5021998;28;20267;-68
2024/03/31 02:00:27;;;;;;;19.30;6.53;;;12.30;99.90;;;;;;5028215;28;20180;-68
2024/03/31 02:02:52;;;;;;;18.77;7.20;;;12.30;99.90;;;;;;5016165;28;20193;-68
2024/03/31 02:05:18;;;;;;;19.00;7.00;;;12.40;99.90;;;;;;5018625;28;21074;-68
2024/03/31 02:07:44;;;;;;;21.13;7.50;;;12.40;99.90;;;;;;5022402;28;20547;-68
2024/03/31 02:10:10;;;;;;;18.63;7.70;;;12.40;99.90;;;;;;5021621;28;20205;-68
2024/03/31 02:12:37;;;;;;;14.17;6.43;;;12.40;99.90;;;;;;5019681;28;20857;-68
2024/03/31 02:15:03;;;;;;;13.63;6.40;;;12.40;99.90;;;;;;5020526;28;20216;-69
2024/03/31 02:17:29;;;;;;;18.57;6.30;;;12.40;99.90;;;;;;5021202;28;20435;-69
2024/03/31 02:19:54;;;;;;;11.93;6.53;;;12.50;99.90;;;;;;5017514;28;21022;-68
2024/03/31 02:22:20;;;;;;;13.83;6.87;;;12.50;99.90;;;;;;5018901;28;20359;-68
2024/03/31 02:24:45;;;;;;;18.23;7.50;;;12.50;99.90;;;;;;5021785;28;20197;-68
2024/03/31 02:27:12;;;;;;;15.50;5.77;;;12.50;99.90;;;;;;5025465;28;20185;-69
2024/03/31 02:29:39;;;;;;;21.17;6.80;;;12.50;99.90;;;;;;5019745;28;20183;-69
2024/03/31 02:32:04;;;;;;;20.27;7.80;;;12.50;99.90;;;;;;5018631;28;20498;-68
2024/03/31 02:34:30;;;;;;;15.20;6.30;;;12.50;99.90;;;;;;5021100;28;20454;-68
2024/03/31 02:36:56;;;;;;;13.93;5.70;;;12.50;99.90;;;;;;5020069;28;20185;-69
2024/03/31 02:39:22;;;;;;;13.53;6.80;;;12.50;99.90;;;;;;5023506;28;20234;-68
2024/03/31 02:41:47;;;;;;;17.13;6.50;;;12.50;99.90;;;;;;5024055;28;20306;-69
2024/03/31 02:44:13;;;;;;;13.90;6.50;;;12.60;99.90;;;;;;5023479;28;20216;-69
2024/03/31 02:46:38;;;;;;;16.53;7.40;;;12.60;99.90;;;;;;5023145;28;20692;-68
2024/03/31 02:49:04;;;;;;;15.20;6.27;;;12.60;99.90;;;;;;5022385;28;20759;-68
2024/03/31 02:51:29;;;;;;;24.67;7.27;;;12.60;99.90;;;;;;5022930;28;20638;-69
2024/03/31 02:53:55;;;;;;;18.40;6.63;;;12.60;99.90;;;;;;5019817;28;20238;-68
2024/03/31 02:56:20;;;;;;;16.73;7.13;;;12.60;99.90;;;;;;5020858;28;20566;-68
2024/03/31 02:58:46;;;;;;;16.87;7.10;;;12.60;99.90;;;;;;5021039;28;20569;-68
2024/03/31 03:01:11;;;;;;;18.43;6.97;;;12.60;99.90;;;;;;5018330;28;20192;-68
2024/03/31 03:03:37;;;;;;;15.93;7.27;;;12.60;99.90;;;;;;5022110;28;20273;-68
2024/03/31 03:06:03;;;;;;;14.03;6.53;;;12.60;99.90;;;;;;5023592;28;21048;-68
2024/03/31 03:08:29;;;;;;;19.07;6.90;;;12.60;99.90;;;;;;5018237;28;20185;-69
2024/03/31 03:10:56;;;;;;;15.47;6.20;;;12.60;99.90;;;;;;5020994;28;20188;-69
2024/03/31 03:13:21;;;;;;;18.83;6.73;;;12.60;99.90;;;;;;5025869;28;20212;-69
2024/03/31 03:15:48;;;;;;;23.70;7.50;;;12.60;99.90;;;;;;5022313;28;20479;-69
2024/03/31 03:18:19;;;;;;;12.10;6.80;;;12.60;99.90;;;;;;5027099;28;20204;-69
2024/03/31 03:20:45;;;;;;;17.90;6.67;;;12.60;99.90;;;;;;5016946;28;20431;-69
2024/03/31 03:23:10;;;;;;;12.83;6.33;;;12.60;99.90;;;;;;5027260;28;21097;-69
2024/03/31 03:25:36;;;;;;;14.97;7.47;;;12.60;99.90;;;;;;5019178;28;20668;-69
2024/03/31 03:28:02;;;;;;;22.10;6.83;;;12.50;99.90;;;;;;5021465;28;20541;-69
2024/03/31 03:30:27;;;;;;;11.43;5.50;;;12.50;99.90;;;;;;5018355;28;20706;-69
2024/03/31 03:32:53;;;;;;;14.40;6.10;;;12.50;99.90;;;;;;5019105;28;20985;-69
2024/03/31 03:35:19;;;;;;;14.03;7.03;;;12.50;99.90;;;;;;5024975;28;20210;-69
2024/03/31 03:37:45;;;;;;;12.60;6.33;;;12.50;99.90;;;;;;5022058;28;20419;-69
2024/03/31 03:40:12;;;;;;;17.27;6.73;;;12.50;99.90;;;;;;5015100;28;20468;-69
2024/03/31 03:42:38;;;;;;;18.20;6.80;;;12.50;99.90;;;;;;5017274;28;20177;-69
2024/03/31 03:45:04;;;;;;;16.83;6.07;;;12.40;99.90;;;;;;5018804;28;20455;-69
2024/03/31 03:47:30;;;;;;;18.33;7.20;;;12.50;99.90;;;;;;5021125;28;20181;-69
2024/03/31 03:49:55;;;;;;;20.50;6.70;;;12.50;99.90;;;;;;5020229;28;20510;-69
2024/03/31 03:52:21;;;;;;;22.77;7.50;;;12.50;99.90;;;;;;5012250;28;20193;-69
2024/03/31 03:54:47;;;;;;;20.03;8.00;;;12.40;99.90;;;;;;5019543;28;20204;-69
2024/03/31 03:57:12;;;;;;;12.90;6.83;;;12.40;99.90;;;;;;5016709;28;20635;-69
2024/03/31 03:59:38;;;;;;;12.73;6.33;;;12.50;99.90;;;;;;5029961;28;20180;-69
2024/03/31 04:02:03;;;;;;;14.83;6.07;;;12.40;99.90;;;;;;5027711;28;20179;-69
2024/03/31 04:04:29;;;;;;;12.93;6.40;;;12.50;99.90;;;;;;5017970;28;20213;-69
2024/03/31 04:06:54;;;;;;;14.27;5.63;;;12.40;99.90;;;;;;5023512;28;20699;-69
2024/03/31 04:09:20;;;;;;;8.93;5.17;;;12.40;99.90;;;;;;5019622;28;20228;-69
2024/03/31 04:11:46;;;;;;;13.43;5.90;;;12.40;99.90;;;;;;5018202;28;20180;-69
2024/03/31 04:14:11;;;;;;;13.73;6.30;;;12.40;99.90;;;;;;5022350;28;20235;-69
2024/03/31 04:16:37;;;;;;;25.73;6.47;;;12.40;99.90;;;;;;5020781;28;20546;-69
2024/03/31 04:19:02;;;;;;;17.03;5.93;;;12.40;99.90;;;;;;5023580;28;20196;-68
2024/03/31 04:21:28;;;;;;;18.03;6.37;;;12.40;99.90;;;;;;5020320;28;20238;-68
2024/03/31 04:23:54;;;;;;;11.97;5.73;;;12.40;99.90;;;;;;5021492;28;20266;-68
2024/03/31 04:26:25;;;;;;;19.27;6.37;;;12.30;99.90;;;;;;5023920;28;20788;-69
2024/03/31 04:28:54;;;;;;;16.33;6.87;;;12.30;99.90;;;;;;5020771;28;20416;-69
2024/03/31 04:31:20;;;;;;;14.43;5.97;;;12.20;99.90;;;;;;5020557;28;20426;-69
2024/03/31 04:33:46;;;;;;;10.53;6.20;;;12.20;99.90;;;;;;5024627;28;20950;-68
2024/03/31 04:36:12;;;;;;;11.90;5.20;;;12.20;99.90;;;;;;5024355;28;20999;-67
2024/03/31 04:38:38;;;;;;;15.20;6.70;;;12.20;99.90;;;;;;5024774;28;20181;-68
2024/03/31 04:41:05;;;;;;;16.57;7.97;;;12.10;99.90;;;;;;5028570;28;20504;-68
2024/03/31 04:43:30;;;;;;;27.67;8.43;;;12.10;99.90;;;;;;5021486;28;20192;-68
2024/03/31 04:46:04;;;;;;;15.63;7.00;;;12.10;99.90;;;;;;5024186;28;20977;-69
2024/03/31 04:48:30;;;;;;;12.30;7.80;;;12.00;99.90;;;;;;5026030;28;20180;-69
2024/03/31 04:50:56;;;;;;;16.27;7.20;;;12.00;99.90;;;;;;5025664;28;20426;-67
2024/03/31 04:53:21;;;;;;;18.97;7.90;;;12.00;99.90;;;;;;5019253;28;20431;-68
2024/03/31 04:55:50;;;;;;;15.40;7.13;;;12.00;99.90;;;;;;5025799;28;20203;-67
2024/03/31 04:58:15;;;;;;;14.97;7.23;;;11.90;99.90;;;;;;5026191;28;20210;-68
2024/03/31 05:00:41;;;;;;;18.20;7.43;;;12.00;99.90;;;;;;5022648;28;20440;-69
2024/03/31 05:03:06;;;;;;;19.30;8.60;;;11.90;99.90;;;;;;5019165;28;20205;-69
2024/03/31 05:05:36;;;;;;;16.50;10.23;;;11.90;99.90;;;;;;5024645;28;20518;-70
2024/03/31 05:08:03;;;;;;;19.90;8.27;;;11.90;99.90;;;;;;5021362;28;20188;-69
2024/03/31 05:10:29;;;;;;;13.93;7.93;;;11.90;99.90;;;;;;5022889;28;20407;-71
2024/03/31 05:12:56;;;;;;;16.73;8.50;;;11.80;99.90;;;;;;5019339;28;20504;-69
2024/03/31 05:15:22;;;;;;;18.33;9.07;;;11.80;99.90;;;;;;5025785;28;20200;-69
2024/03/31 05:17:47;;;;;;;18.33;8.33;;;11.80;99.90;;;;;;5022940;28;20443;-69
2024/03/31 05:20:13;;;;;;;14.13;8.60;;;11.80;99.90;;;;;;5021470;28;20272;-69
2024/03/31 05:22:38;;;;;;;12.77;8.77;;;11.80;99.90;;;;;;5020542;28;20176;-69
2024/03/31 05:25:04;;;;;;;16.47;8.73;;;11.90;99.90;;;;;;5026253;28;20211;-69
2024/03/31 05:27:30;;;;;;;15.43;7.70;;;11.80;99.90;;;;;;5024909;28;20188;-69
2024/03/31 05:29:55;;;;;;;12.03;7.80;;;11.90;99.90;;;;;;5022113;28;20287;-69
2024/03/31 05:32:21;;;;;;;11.53;8.07;;;11.80;99.90;;;;;;5020551;28;20643;-68
2024/03/31 05:34:46;;;;;;;13.97;8.13;;;11.90;99.90;;;;;;5021792;28;20223;-69
2024/03/31 05:37:12;;;;;;;11.50;7.47;;;11.90;99.90;;;;;;5022980;28;20195;-69
2024/03/31 05:39:38;;;;;;;19.60;8.17;;;11.80;99.90;;;;;;5022887;28;20177;-68
2024/03/31 05:42:03;;;;;;;14.87;8.83;;;11.90;99.90;;;;;;5021222;28;20531;-69
2024/03/31 05:44:29;;;;;;;13.10;7.13;;;11.90;99.90;;;;;;5023937;28;20224;-69
2024/03/31 05:46:55;;;;;;;11.33;7.97;;;11.90;99.90;;;;;;5021666;28;20313;-69
2024/03/31 05:49:20;;;;;;;13.27;7.60;;;11.90;99.90;;;;;;5021737;28;20193;-68
2024/03/31 05:51:46;;;;;;;12.10;7.47;;;11.90;99.90;;;;;;5019387;28;20195;-69
2024/03/31 05:54:12;;;;;;;11.73;7.23;;;12.00;99.90;;;;;;5021459;28;20658;-69
2024/03/31 05:56:37;;;;;;;17.40;7.30;;;11.90;99.90;;;;;;5015527;28;20278;-69
2024/03/31 05:59:06;;;;;;;8.53;6.63;;;12.00;99.90;;;;;;5026411;28;20938;-68
2024/03/31 06:01:31;;;;;;;14.43;7.37;;;12.00;99.90;;;;;;5025552;28;20194;-69
2024/03/31 06:03:57;;;;;;;10.50;7.17;;;12.00;99.90;;;;;;5020494;28;20501;-68
2024/03/31 06:06:22;;;;;;;13.33;7.30;;;12.10;99.90;;;;;;5019805;28;20662;-69
2024/03/31 06:08:48;;;;;;;13.30;6.60;;;12.10;99.90;;;;;;5024385;28;20180;-68
2024/03/31 06:11:15;;;;;;;14.57;7.33;;;12.20;99.90;;;;;;5021776;28;20241;-69
2024/03/31 06:13:40;;;;;;;13.00;7.27;;;12.20;99.90;;;;;;5023368;28;20371;-69
2024/03/31 06:16:06;;;;;;;12.43;6.17;;;12.30;99.90;;;;;;5019946;28;21075;-69
2024/03/31 06:18:31;;;;;;;10.47;6.07;;;12.30;99.90;;;;;;5020189;28;20239;-69
2024/03/31 06:20:57;;;;;;;11.03;5.40;;;12.30;99.90;;;;;;5019005;28;20314;-69
2024/03/31 06:23:23;;;;;;;11.23;6.30;;;12.40;99.90;;;;;;5019313;28;20259;-69
2024/03/31 06:25:58;;;;;;;13.53;5.50;;;12.40;99.90;;;;;;5020526;28;20915;-69
2024/03/31 06:28:24;;;;;;;15.43;6.73;;;12.40;99.90;;;;;;5020549;28;20181;-68
2024/03/31 06:30:49;;;;;;;11.87;5.40;;;12.40;99.90;;;;;;5018712;28;20493;-69
2024/03/31 06:33:15;;;;;;;11.47;5.63;;;12.50;99.90;;;;;;5020428;28;20188;-68
2024/03/31 06:35:40;;;;;;;13.47;5.40;;;12.50;99.90;;;;;;5018240;28;20215;-68
2024/03/31 06:38:06;;;;;;;15.67;5.43;;;12.60;99.90;;;;;;5023070;28;20267;-68
2024/03/31 06:40:33;;;;;;;13.60;5.20;;;12.60;99.90;;;;;;5022434;28;20581;-68
2024/03/31 06:42:59;;;;;;;12.10;4.90;;;12.70;99.90;;;;;;5022119;28;20197;-68
2024/03/31 06:45:24;;;;;;;11.70;4.87;;;12.70;99.90;;;;;;5024281;28;20522;-68
2024/03/31 06:47:50;;;;;;;12.50;5.70;;;12.80;99.90;;;;;;5018578;28;20500;-68
2024/03/31 06:50:16;;;;;;;14.20;6.40;;;12.80;99.90;;;;;;5025149;28;20268;-68
2024/03/31 06:52:41;;;;;;;11.57;5.70;;;12.90;99.90;;;;;;5019556;28;20642;-68
2024/03/31 06:55:07;;;;;;;10.53;4.77;;;13.00;99.90;;;;;;5022481;28;20239;-68
2024/03/31 06:57:32;;;;;;;16.37;5.20;;;13.00;99.90;;;;;;5018738;28;20192;-68
2024/03/31 06:59:58;;;;;;;19.33;5.40;;;13.10;99.90;;;;;;5019972;28;20200;-69
2024/03/31 07:02:24;;;;;;;7.80;5.60;;;13.10;99.90;;;;;;5024656;28;20242;-68
2024/03/31 07:04:49;;;;;;;11.13;5.00;;;13.20;99.90;;;;;;5019722;28;20220;-68
2024/03/31 07:07:15;;;;;;;11.80;5.20;;;13.20;99.90;;;;;;5026683;28;20218;-68
2024/03/31 07:09:40;;;;;;;12.37;5.30;;;13.30;99.90;;;;;;5022231;28;21523;-69
2024/03/31 07:12:06;;;;;;;15.03;5.73;;;13.30;99.90;;;;;;5019483;28;20181;-68
2024/03/31 07:14:32;;;;;;;12.90;3.83;;;13.40;99.90;;;;;;5021624;28;20275;-69
2024/03/31 07:16:58;;;;;;;13.97;4.20;;;13.40;99.90;;;;;;5019394;28;20480;-69
2024/03/31 07:19:24;;;;;;;14.63;4.50;;;13.40;99.90;;;;;;5018768;28;20250;-69
2024/03/31 07:21:50;;;;;;;11.23;3.47;;;13.40;99.90;;;;;;5017052;28;20455;-69
2024/03/31 07:24:15;;;;;;;18.03;4.17;;;13.50;99.90;;;;;;5021724;28;20243;-68
2024/03/31 07:26:41;;;;;;;9.13;3.80;;;13.50;99.90;;;;;;5018341;28;20196;-69
2024/03/31 07:29:07;;;;;;;10.70;3.27;;;13.60;99.90;;;;;;5021997;28;20193;-69
2024/03/31 07:31:32;;;;;;;11.27;3.53;;;13.60;99.90;;;;;;5017886;28;20586;-68
2024/03/31 07:33:59;;;;;;;10.30;3.37;;;13.70;99.90;;;;;;5020337;28;20250;-68
2024/03/31 07:36:24;;;;;;;12.03;3.70;;;13.70;99.90;;;;;;5026104;28;20188;-69
2024/03/31 07:38:50;;;;;;;11.70;3.67;;;13.70;99.90;;;;;;5018008;28;20419;-69
2024/03/31 07:41:16;;;;;;;14.07;4.70;;;13.70;99.90;;;;;;5020727;28;20196;-69
2024/03/31 07:43:41;;;;;;;16.37;4.33;;;13.70;99.90;;;;;;5019313;28;20670;-69
2024/03/31 07:46:07;;;;;;;8.80;3.00;;;13.80;99.90;;;;;;5021001;28;20200;-69
2024/03/31 07:48:32;;;;;;;12.20;3.80;;;13.80;99.90;;;;;;5015403;28;20220;-69
2024/03/31 07:50:58;;;;;;;11.00;3.70;;;13.70;99.90;;;;;;5016594;28;20238;-69
2024/03/31 07:53:23;;;;;;;10.87;3.70;;;13.80;99.90;;;;;;5018387;28;20263;-69
2024/03/31 07:55:56;;;;;;;12.33;4.00;;;13.80;99.90;;;;;;5023227;28;20647;-69
2024/03/31 07:58:22;;;;;;;11.50;3.97;;;13.80;99.90;;;;;;5020013;28;20708;-69
2024/03/31 08:00:48;;;;;;;11.03;3.37;;;13.90;99.90;;;;;;5019745;28;20427;-69
2024/03/31 08:03:13;;;;;;;10.77;4.63;;;14.00;99.90;;;;;;5019505;28;20700;-69
2024/03/31 08:05:39;;;;;;;11.73;5.47;;;14.00;99.90;;;;;;5017972;28;20219;-69
2024/03/31 08:08:05;;;;;;;8.53;3.90;;;14.10;99.90;;;;;;5020874;28;20184;-69
2024/03/31 08:10:31;;;;;;;10.83;3.13;;;14.20;99.90;;;;;;5022352;28;20271;-68
2024/03/31 08:12:56;;;;;;;13.30;4.37;;;14.40;99.90;;;;;;5019407;28;20514;-68
2024/03/31 08:15:22;;;;;;;9.13;3.10;;;14.50;99.90;;;;;;5022559;28;20205;-68
2024/03/31 08:17:48;;;;;;;14.00;4.20;;;14.70;99.90;;;;;;5018318;28;20602;-68
2024/03/31 08:20:13;;;;;;;17.10;6.80;;;14.80;99.90;;;;;;5020062;28;20302;-68
2024/03/31 08:22:39;;;;;;;13.73;5.30;;;14.90;99.90;;;;;;5019435;28;20184;-69
2024/03/31 08:25:04;;;;;;;13.10;4.20;;;15.10;99.90;;;;;;5014261;28;20215;-69
2024/03/31 08:27:30;;;;;;;16.73;3.47;;;15.20;99.90;;;;;;5020306;28;20251;-69
2024/03/31 08:29:56;;;;;;;10.50;3.43;;;15.30;99.90;;;;;;5015900;28;20207;-69
2024/03/31 08:32:21;;;;;;;12.37;4.27;;;15.40;99.90;;;;;;5022305;28;20184;-69
2024/03/31 08:34:47;;;;;;;7.07;3.67;;;15.60;99.90;;;;;;5021249;28;21031;-69
2024/03/31 08:37:12;;;;;;;13.53;3.43;;;15.60;99.90;;;;;;5019513;28;20246;-69
2024/03/31 08:39:38;;;;;;;9.50;3.63;;;15.70;99.90;;;;;;5021385;28;20192;-69
2024/03/31 08:42:24;;;;;;;13.13;3.67;;;15.60;99.90;;;;;;5017457;28;20193;-69
2024/03/31 08:44:51;;;;;;;8.40;2.93;;;15.60;99.90;;;;;;5018092;28;20348;-69
2024/03/31 08:47:26;;;;;;;15.73;3.30;;;15.60;99.90;;;;;;5020766;28;20466;-69
2024/03/31 08:49:51;;;;;;;13.47;3.87;;;15.70;99.90;;;;;;5018093;28;20445;-69
2024/03/31 08:52:17;;;;;;;8.80;4.50;;;15.70;99.90;;;;;;5020147;28;20435;-68
2024/03/31 08:54:44;;;;;;;14.53;3.87;;;15.70;99.90;;;;;;5018376;28;20719;-68
2024/03/31 08:57:10;;;;;;;12.00;4.37;;;15.70;99.90;;;;;;5038155;28;20419;-68
2024/03/31 08:59:35;;;;;;;11.97;4.47;;;15.80;99.90;;;;;;5018204;28;20492;-68
2024/03/31 09:02:02;;;;;;;9.33;3.70;;;15.80;99.90;;;;;;5016853;28;21046;-68
2024/03/31 09:04:28;;;;;;;11.80;3.60;;;15.80;99.90;;;;;;5019880;28;20215;-68
2024/03/31 09:06:53;;;;;;;11.37;4.67;;;15.80;99.90;;;;;;5021353;28;20415;-68
2024/03/31 09:09:23;;;;;;;10.33;3.63;;;15.90;99.90;;;;;;5018549;28;20242;-68
2024/03/31 09:11:49;;;;;;;17.50;4.10;;;16.00;99.90;;;;;;5018565;28;20189;-68
2024/03/31 09:14:15;;;;;;;18.03;3.60;;;16.10;99.90;;;;;;5018438;28;20447;-68
2024/03/31 09:16:47;;;;;;;10.87;5.23;;;16.20;99.90;;;;;;5021275;28;21079;-68
2024/03/31 09:19:13;;;;;;;12.07;5.20;;;16.30;99.90;;;;;;5022502;28;20197;-68
2024/03/31 09:21:48;;;;;;;8.90;3.97;;;16.40;99.90;;;;;;5021109;28;20451;-69
2024/03/31 09:24:14;;;;;;;10.80;3.53;;;16.50;99.90;;;;;;5033659;28;20220;-68
2024/03/31 09:26:40;;;;;;;8.23;2.63;;;16.60;99.90;;;;;;5026919;28;20423;-68
2024/03/31 09:29:06;;;;;;;8.07;2.83;;;16.70;99.90;;;;;;5025142;28;20789;-68
2024/03/31 09:31:32;;;;;;;15.07;5.43;;;16.60;99.90;;;;;;5018898;28;20428;-68
2024/03/31 09:33:59;;;;;;;9.13;3.13;;;16.60;99.90;;;;;;5022670;28;20423;-68
2024/03/31 09:36:25;;;;;;;18.53;3.60;;;16.70;99.90;;;;;;5028833;28;20239;-68
2024/03/31 09:38:51;;;;;;;8.13;4.33;;;16.70;99.90;;;;;;5022657;28;20811;-68
2024/03/31 09:41:17;;;;;;;9.90;2.77;;;16.80;99.90;;;;;;5020608;28;20493;-69
2024/03/31 09:43:44;;;;;;;17.07;10.33;;;16.90;99.90;;;;;;5019939;28;20216;-69
2024/03/31 09:46:12;;;;;;;12.00;4.10;;;16.90;99.90;;;;;;5023146;28;20837;-69
2024/03/31 09:48:44;;;;;;;17.83;7.17;;;16.90;99.90;;;;;;5023431;28;20462;-69
2024/03/31 09:51:19;;;;;;;13.63;3.40;;;16.90;99.90;;;;;;5021920;28;20446;-69
2024/03/31 09:53:54;;;;;;;12.13;3.80;;;16.90;99.90;;;;;;5022715;28;20427;-69
2024/03/31 09:56:24;;;;;;;12.27;4.67;;;16.90;99.90;;;;;;5023439;28;20756;-69
2024/03/31 09:58:55;;;;;;;16.23;5.07;;;16.80;99.90;;;;;;5016311;28;20446;-68
2024/03/31 10:01:22;;;;;;;12.87;3.60;;;16.80;99.90;;;;;;5019706;28;20979;-68
2024/03/31 10:03:51;;;;;;;12.03;3.40;;;16.90;99.90;;;;;;5022494;28;20830;-68
2024/03/31 10:06:18;;;;;;;11.13;3.60;;;17.00;99.90;;;;;;5023672;28;20427;-68
2024/03/31 10:08:44;;;;;;;15.93;4.27;;;17.10;99.90;;;;;;5021904;28;20543;-68
2024/03/31 10:11:10;;;;;;;13.70;4.03;;;17.10;99.90;;;;;;5020601;28;20438;-68
2024/03/31 10:13:38;;;;;;;15.53;4.10;;;17.20;99.90;;;;;;5022564;28;20798;-69
2024/03/31 10:16:07;;;;;;;19.40;4.73;;;17.30;99.90;;;;;;5020992;28;20216;-68
2024/03/31 10:18:33;;;;;;;11.60;3.70;;;17.40;99.90;;;;;;5016974;28;20466;-68
2024/03/31 10:20:59;;;;;;;15.50;4.20;;;17.40;99.90;;;;;;5022345;28;20825;-68
2024/03/31 10:23:25;;;;;;;10.53;3.93;;;17.40;99.90;;;;;;5030851;28;20462;-69
2024/03/31 10:25:52;;;;;;;15.77;6.07;;;17.50;99.90;;;;;;5022559;28;20933;-68
2024/03/31 10:28:19;;;;;;;17.83;4.97;;;17.50;99.90;;;;;;5018786;28;20526;-69
2024/03/31 10:30:45;;;;;;;18.13;5.83;;;17.50;99.90;;;;;;5024379;28;20419;-68
2024/03/31 10:33:11;;;;;;;10.00;4.43;;;17.40;99.90;;;;;;5018917;28;20434;-69
2024/03/31 10:35:38;;;;;;;20.47;5.30;;;17.40;99.90;;;;;;5017510;28;20520;-68
2024/03/31 10:38:04;;;;;;;19.63;4.30;;;17.40;99.90;;;;;;5012942;28;20215;-68
2024/03/31 10:40:31;;;;;;;12.20;3.80;;;17.40;99.90;;;;;;5017307;28;20439;-68
2024/03/31 10:42:57;;;;;;;13.07;4.23;;;17.40;99.90;;;;;;5017715;28;20212;-69
2024/03/31 10:45:24;;;;;;;12.77;3.77;;;17.40;99.90;;;;;;5020240;28;20970;-69
2024/03/31 10:47:50;;;;;;;15.00;4.10;;;17.30;99.90;;;;;;5023101;28;20460;-69
2024/03/31 10:50:16;;;;;;;12.33;3.60;;;17.40;99.90;;;;;;5017389;28;21157;-68
2024/03/31 10:52:42;;;;;;;11.00;3.63;;;17.50;99.90;;;;;;5018749;28;20509;-69
2024/03/31 10:55:09;;;;;;;13.83;5.20;;;17.60;99.90;;;;;;5019453;28;20273;-69
2024/03/31 10:57:40;;;;;;;15.53;6.47;;;17.70;99.90;;;;;;5019454;28;20438;-69
2024/03/31 11:00:07;;;;;;;12.03;4.80;;;17.90;99.90;;;;;;5020690;28;20415;-69
2024/03/31 11:02:34;;;;;;;11.73;4.00;;;18.10;99.90;;;;;;5021962;28;20446;-69
2024/03/31 11:05:04;;;;;;;15.17;5.40;;;18.30;99.90;;;;;;5020648;28;21084;-68
2024/03/31 11:07:43;;;;;;;10.30;3.57;;;18.60;99.90;;;;;;5030114;28;20476;-69
2024/03/31 11:10:09;;;;;;;14.37;4.27;;;18.80;99.90;;;;;;5017261;28;20512;-69
2024/03/31 11:12:35;;;;;;;21.93;5.30;;;19.00;99.90;;;;;;5021664;28;20957;-69
2024/03/31 11:15:01;;;;;;;16.23;4.43;;;19.20;99.90;;;;;;5017814;28;20463;-69
2024/03/31 11:17:27;;;;;;;14.83;3.30;;;19.30;99.90;;;;;;5024870;28;20474;-69
2024/03/31 11:19:55;;;;;;;16.70;3.57;;;19.40;99.90;;;;;;5019677;28;20192;-69
2024/03/31 11:22:21;;;;;;;16.27;4.47;;;19.50;99.90;;;;;;5019507;28;20415;-68
2024/03/31 11:24:48;;;;;;;17.87;6.23;;;19.60;99.90;;;;;;5018884;28;20577;-70
2024/03/31 11:27:15;;;;;;;13.07;3.43;;;19.70;99.90;;;;;;5019832;28;20414;-69
2024/03/31 11:29:41;;;;;;;20.83;7.77;;;19.80;99.90;;;;;;5019625;28;20426;-69
2024/03/31 11:32:07;;;;;;;12.80;5.03;;;19.80;99.90;;;;;;5020087;28;20458;-69
2024/03/31 11:34:34;;;;;;;16.73;4.13;;;19.90;99.90;;;;;;5020250;28;21049;-68
2024/03/31 11:37:03;;;;;;;15.90;5.10;;;20.00;99.90;;;;;;5014357;28;20925;-68
2024/03/31 11:39:33;;;;;;;13.00;3.67;;;20.10;99.90;;;;;;5018179;28;20439;-68
2024/03/31 11:41:59;;;;;;;17.20;5.93;;;20.10;99.90;;;;;;5018186;28;20488;-69
2024/03/31 11:44:25;;;;;;;15.87;5.00;;;20.10;99.90;;;;;;5020443;28;20478;-69
2024/03/31 11:46:51;;;;;;;10.33;3.70;;;20.10;99.90;;;;;;5018298;28;20183;-69
2024/03/31 11:49:17;;;;;;;10.80;4.00;;;20.20;99.90;;;;;;5016559;28;20793;-68
2024/03/31 11:51:43;;;;;;;17.00;4.90;;;20.30;99.90;;;;;;5017900;28;20239;-68
2024/03/31 11:54:09;;;;;;;17.50;9.17;;;20.40;99.90;;;;;;5023229;28;20789;-68
2024/03/31 11:56:36;;;;;;;19.13;4.40;;;20.50;99.90;;;;;;5016543;28;20446;-69
2024/03/31 11:59:20;;;;;;;20.10;6.40;;;20.60;99.90;;;;;;5018377;28;20246;-69
2024/03/31 12:01:54;;;;;;;10.93;4.33;;;20.80;99.90;;;;;;5032121;28;20525;-69
2024/03/31 12:04:20;;;;;;;18.13;4.60;;;21.20;99.90;;;;;;5021812;28;20861;-69
2024/03/31 12:06:46;;;;;;;13.73;5.07;;;21.70;99.90;;;;;;5021245;28;20436;-69
2024/03/31 12:09:12;;;;;;;16.33;6.63;;;22.60;99.90;;;;;;5018082;28;20199;-69
2024/03/31 12:11:38;;;;;;;15.93;4.90;;;23.90;99.90;;;;;;5019935;28;20180;-69
2024/03/31 12:14:05;;;;;;;29.20;17.23;;;24.70;99.90;;;;;;5016946;28;20453;-69
2024/03/31 12:16:31;;;;;;;12.23;5.27;;;25.90;99.90;;;;;;5020877;28;20434;-69
2024/03/31 12:19:00;;;;;;;13.40;4.00;;;27.30;99.90;;;;;;5015684;28;20442;-69
2024/03/31 12:21:27;;;;;;;16.07;4.77;;;28.30;99.90;;;;;;5016241;28;20442;-70
2024/03/31 12:23:55;;;;;;;14.30;3.70;;;28.30;99.90;;;;;;5016205;28;20472;-70
2024/03/31 12:26:21;;;;;;;8.70;3.70;;;28.30;98.20;;;;;;5023678;28;20477;-70
2024/03/31 12:28:48;;;;;;;9.17;3.80;;;28.40;94.40;;;;;;5017676;28;20442;-70
2024/03/31 12:31:17;;;;;;;9.30;4.10;;;28.20;94.10;;;;;;5020195;28;20507;-70
2024/03/31 12:33:43;;;;;;;9.33;4.10;;;27.90;92.60;;;;;;5016163;28;20477;-69